Time;durP1;ratioP1;P1;durP2;ratioP2;P2;SDS_P1;SDS_P2;PMS_P1;PMS_P2;Temp;Humidity;BMP_temperature;BMP_pressure;BME280_temperature;BME280_humidity;BME280_pressure;Samples;Min_cycle;Max_cycle;Signal;HPM_P1;HPM_P2
2024/01/20 00:01:12;;;;;;;20.43;13.17;;;;;;;;;;5018598;28;20215;-63
2024/01/20 00:03:40;;;;;;;20.93;13.93;;;;;;;;;;5024447;28;20227;-65
2024/01/20 00:06:07;;;;;;;24.07;15.33;;;;;;;;;;5020175;28;20190;-64
2024/01/20 00:08:34;;;;;;;23.57;15.37;;;;;;;;;;5023013;28;20200;-64
2024/01/20 00:11:01;;;;;;;26.60;14.77;;;;;;;;;;5013068;28;20208;-64
2024/01/20 00:13:29;;;;;;;22.50;14.60;;;;;;;;;;5022688;28;20223;-64
2024/01/20 00:15:56;;;;;;;46.63;15.17;;;;;;;;;;5021346;28;20212;-63
2024/01/20 00:18:23;;;;;;;24.43;14.90;;;;;;;;;;5019759;28;20200;-64
2024/01/20 00:20:51;;;;;;;27.67;16.80;;;;;;;;;;5029914;28;20200;-63
2024/01/20 00:23:18;;;;;;;26.23;15.67;;;;;;;;;;5022658;28;20196;-64
2024/01/20 00:25:45;;;;;;;32.87;18.80;;;;;;;;;;5025022;28;20303;-64
2024/01/20 00:28:13;;;;;;;32.57;17.30;;;;;;;;;;5022952;28;20199;-64
2024/01/20 00:30:40;;;;;;;25.87;16.70;;;;;;;;;;5023588;28;20212;-64
2024/01/20 00:33:08;;;;;;;26.77;16.37;;;;;;;;;;5030001;28;20319;-65
2024/01/20 00:35:36;;;;;;;57.03;22.70;;;;;;;;;;5024334;28;20251;-64
2024/01/20 00:38:05;;;;;;;65.07;24.97;;;;;;;;;;5024191;28;20270;-64
2024/01/20 00:40:32;;;;;;;82.73;31.13;;;;;;;;;;5021709;28;20205;-64
2024/01/20 00:42:59;;;;;;;76.87;32.53;;;;;;;;;;5025534;28;20314;-64
2024/01/20 00:45:26;;;;;;;70.77;32.23;;;;;;;;;;5028394;28;20207;-65
2024/01/20 00:47:53;;;;;;;79.10;30.40;;;;;;;;;;5024598;28;20212;-64
2024/01/20 00:50:20;;;;;;;75.43;28.10;;;;;;;;;;5029853;28;20200;-64
2024/01/20 00:52:47;;;;;;;57.10;26.60;;;;;;;;;;5025237;28;20214;-64
2024/01/20 00:55:16;;;;;;;46.83;24.37;;;;;;;;;;5025203;28;20204;-64
2024/01/20 00:57:43;;;;;;;47.20;22.73;;;;;;;;;;5027566;28;20224;-65
2024/01/20 01:00:11;;;;;;;39.30;21.47;;;;;;;;;;5024994;28;20235;-64
2024/01/20 01:02:38;;;;;;;43.37;21.13;;;;;;;;;;5028686;28;20246;-64
2024/01/20 01:05:06;;;;;;;38.57;20.00;;;;;;;;;;5021760;28;20200;-64
2024/01/20 01:07:33;;;;;;;37.97;19.90;;;;;;;;;;5023894;28;20275;-64
2024/01/20 01:10:01;;;;;;;49.20;20.33;;;;;;;;;;5018815;28;20203;-63
2024/01/20 01:12:29;;;;;;;45.53;20.40;;;;;;;;;;5023058;28;20213;-64
2024/01/20 01:14:56;;;;;;;52.53;19.43;;;;;;;;;;5025166;28;20300;-64
2024/01/20 01:17:24;;;;;;;38.03;19.60;;;;;;;;;;5022303;28;20213;-64
2024/01/20 01:19:51;;;;;;;37.90;18.90;;;;;;;;;;5023736;28;20204;-64
2024/01/20 01:22:18;;;;;;;35.70;17.87;;;;;;;;;;5023113;28;20201;-64
2024/01/20 01:24:45;;;;;;;49.43;17.37;;;;;;;;;;5019288;28;20209;-64
2024/01/20 01:27:12;;;;;;;43.97;16.60;;;;;;;;;;5018993;28;20221;-64
2024/01/20 01:29:41;;;;;;;103.17;19.83;;;;;;;;;;5028757;28;20211;-64
2024/01/20 01:32:08;;;;;;;67.83;19.77;;;;;;;;;;5027036;28;20232;-64
2024/01/20 01:34:36;;;;;;;72.63;18.70;;;;;;;;;;5025419;28;20207;-65
2024/01/20 01:37:03;;;;;;;55.83;18.13;;;;;;;;;;5022262;28;20236;-65
2024/01/20 01:39:31;;;;;;;42.53;17.77;;;;;;;;;;5019232;28;20193;-64
2024/01/20 01:41:58;;;;;;;46.83;17.60;;;;;;;;;;5021353;28;20201;-64
2024/01/20 01:44:25;;;;;;;32.30;16.60;;;;;;;;;;5019410;28;20211;-64
2024/01/20 01:46:53;;;;;;;40.27;18.13;;;;;;;;;;5024557;28;20205;-64
2024/01/20 01:49:21;;;;;;;36.57;18.63;;;;;;;;;;5018304;28;20208;-63
2024/01/20 01:51:49;;;;;;;46.43;19.87;;;;;;;;;;5028067;28;20210;-64
2024/01/20 01:54:16;;;;;;;30.23;16.10;;;;;;;;;;5022802;28;20197;-64
2024/01/20 01:56:45;;;;;;;28.10;14.87;;;;;;;;;;5024388;28;20212;-64
2024/01/20 01:59:12;;;;;;;26.60;13.17;;;;;;;;;;5022396;28;20211;-64
2024/01/20 02:01:39;;;;;;;73.47;14.30;;;;;;;;;;5020622;28;20208;-64
2024/01/20 02:04:08;;;;;;;41.10;12.70;;;;;;;;;;5023668;28;20192;-64
2024/01/20 02:06:35;;;;;;;102.30;15.20;;;;;;;;;;5023001;28;20210;-64
2024/01/20 02:09:03;;;;;;;25.83;12.73;;;;;;;;;;5024698;28;20297;-64
2024/01/20 02:11:30;;;;;;;110.40;14.40;;;;;;;;;;5024865;28;20196;-64
2024/01/20 02:13:58;;;;;;;37.20;12.77;;;;;;;;;;5021899;28;20223;-64
2024/01/20 02:16:25;;;;;;;53.73;13.23;;;;;;;;;;5021350;28;20291;-64
2024/01/20 02:18:52;;;;;;;90.70;13.93;;;;;;;;;;5021747;28;20204;-65
2024/01/20 02:21:20;;;;;;;183.73;15.80;;;;;;;;;;5022918;28;20205;-64
2024/01/20 02:23:50;;;;;;;29.53;11.93;;;;;;;;;;5027567;28;20204;-64
2024/01/20 02:26:18;;;;;;;56.47;13.87;;;;;;;;;;5018249;28;20201;-64
2024/01/20 02:28:45;;;;;;;71.03;13.27;;;;;;;;;;5024578;28;20211;-64
2024/01/20 02:31:12;;;;;;;53.10;14.07;;;;;;;;;;5026480;28;20203;-64
2024/01/20 02:33:39;;;;;;;98.23;14.07;;;;;;;;;;5025998;28;20207;-64
2024/01/20 02:36:06;;;;;;;21.33;12.30;;;;;;;;;;5019987;28;20195;-64
2024/01/20 02:38:33;;;;;;;188.53;16.87;;;;;;;;;;5023933;28;20233;-64
2024/01/20 02:41:02;;;;;;;36.03;13.33;;;;;;;;;;5024350;28;20260;-64
2024/01/20 02:43:29;;;;;;;23.03;12.27;;;;;;;;;;5021091;28;20204;-64
2024/01/20 02:45:56;;;;;;;24.47;12.10;;;;;;;;;;5025011;28;20202;-63
2024/01/20 02:48:24;;;;;;;25.60;12.20;;;;;;;;;;5025299;28;20201;-63
2024/01/20 02:50:51;;;;;;;25.60;11.80;;;;;;;;;;5024160;28;20270;-64
2024/01/20 02:53:19;;;;;;;19.23;12.27;;;;;;;;;;5025507;28;20210;-64
2024/01/20 02:55:46;;;;;;;42.27;11.73;;;;;;;;;;5021576;28;20208;-66
2024/01/20 02:58:14;;;;;;;25.20;11.73;;;;;;;;;;5027037;28;20208;-64
2024/01/20 03:00:41;;;;;;;21.30;11.17;;;;;;;;;;5023142;28;20387;-64
2024/01/20 03:03:09;;;;;;;19.57;11.07;;;;;;;;;;5020714;28;20246;-64
2024/01/20 03:05:36;;;;;;;18.97;11.90;;;;;;;;;;5020321;28;20211;-64
2024/01/20 03:08:04;;;;;;;22.43;11.93;;;;;;;;;;5024111;28;20204;-64
2024/01/20 03:10:31;;;;;;;28.37;12.90;;;;;;;;;;5029075;28;20200;-64
2024/01/20 03:12:58;;;;;;;24.97;12.50;;;;;;;;;;5020538;28;20285;-67
2024/01/20 03:15:28;;;;;;;32.13;13.37;;;;;;;;;;5018786;28;20284;-67
2024/01/20 03:17:55;;;;;;;52.93;14.27;;;;;;;;;;5016376;28;20299;-67
2024/01/20 03:20:22;;;;;;;32.03;14.47;;;;;;;;;;5021071;28;20284;-67
2024/01/20 03:22:49;;;;;;;78.43;14.97;;;;;;;;;;5022688;28;20198;-67
2024/01/20 03:25:16;;;;;;;30.53;16.13;;;;;;;;;;5020153;28;20216;-67
2024/01/20 03:27:43;;;;;;;31.70;16.10;;;;;;;;;;5025921;28;20188;-67
2024/01/20 03:30:11;;;;;;;36.63;18.23;;;;;;;;;;5019467;28;20204;-67
2024/01/20 03:32:39;;;;;;;36.33;16.63;;;;;;;;;;5020345;28;20215;-67
2024/01/20 03:35:07;;;;;;;26.93;14.83;;;;;;;;;;5017592;28;20203;-67
2024/01/20 03:37:34;;;;;;;24.07;13.73;;;;;;;;;;5020173;28;20216;-67
2024/01/20 03:40:01;;;;;;;26.33;14.47;;;;;;;;;;5022522;28;20210;-67
2024/01/20 03:42:28;;;;;;;29.87;14.47;;;;;;;;;;5019476;28;20197;-67
2024/01/20 03:44:55;;;;;;;26.47;14.07;;;;;;;;;;5022696;28;20291;-67
2024/01/20 03:47:22;;;;;;;27.97;14.07;;;;;;;;;;5019531;28;20198;-67
2024/01/20 03:49:51;;;;;;;40.93;15.30;;;;;;;;;;5020626;28;20200;-67
2024/01/20 03:52:18;;;;;;;33.63;13.83;;;;;;;;;;5021441;28;20201;-67
2024/01/20 03:54:45;;;;;;;48.30;14.83;;;;;;;;;;5021506;28;20207;-67
2024/01/20 03:57:12;;;;;;;48.93;14.47;;;;;;;;;;5019864;28;20204;-67
2024/01/20 03:59:39;;;;;;;31.70;13.50;;;;;;;;;;5015214;28;20200;-67
2024/01/20 04:02:06;;;;;;;32.57;13.30;;;;;;;;;;5023428;28;20247;-67
2024/01/20 04:04:33;;;;;;;33.17;14.60;;;;;;;;;;5018263;28;20304;-67
2024/01/20 04:07:02;;;;;;;48.70;16.10;;;;;;;;;;5018407;28;20223;-67
2024/01/20 04:09:29;;;;;;;39.77;14.07;;;;;;;;;;5020558;28;20208;-67
2024/01/20 04:11:56;;;;;;;40.80;14.47;;;;;;;;;;5017692;28;20201;-67
2024/01/20 04:14:23;;;;;;;29.23;14.13;;;;;;;;;;5019970;28;20200;-67
2024/01/20 04:16:50;;;;;;;38.20;14.90;;;;;;;;;;5021185;28;20206;-67
2024/01/20 04:19:17;;;;;;;33.00;14.80;;;;;;;;;;5019233;28;20230;-67
2024/01/20 04:21:45;;;;;;;25.47;13.43;;;;;;;;;;5016681;28;20208;-64
2024/01/20 04:24:13;;;;;;;37.70;14.40;;;;;;;;;;5025032;28;20200;-64
2024/01/20 04:26:40;;;;;;;30.93;13.57;;;;;;;;;;5022469;28;20200;-64
2024/01/20 04:29:07;;;;;;;19.60;11.93;;;;;;;;;;5021180;28;20208;-65
2024/01/20 04:31:34;;;;;;;22.23;12.27;;;;;;;;;;5024932;28;20215;-64
2024/01/20 04:34:01;;;;;;;21.07;11.10;;;;;;;;;;5021647;28;20192;-65
2024/01/20 04:36:29;;;;;;;19.50;11.23;;;;;;;;;;5026404;28;20204;-64
2024/01/20 04:38:56;;;;;;;32.30;11.30;;;;;;;;;;5025875;28;20212;-65
2024/01/20 04:41:24;;;;;;;17.97;10.73;;;;;;;;;;5014678;28;20192;-64
2024/01/20 04:43:51;;;;;;;38.13;12.37;;;;;;;;;;5021854;28;20204;-64
2024/01/20 04:46:19;;;;;;;28.33;12.50;;;;;;;;;;5021704;28;20205;-64
2024/01/20 04:48:46;;;;;;;28.23;12.73;;;;;;;;;;5028745;28;20204;-64
2024/01/20 04:51:13;;;;;;;40.33;13.27;;;;;;;;;;5025214;28;20371;-64
2024/01/20 04:53:40;;;;;;;312.03;21.30;;;;;;;;;;5023345;28;20290;-64
2024/01/20 04:56:07;;;;;;;71.13;12.50;;;;;;;;;;5019431;28;20511;-65
2024/01/20 04:58:38;;;;;;;45.60;12.23;;;;;;;;;;5020815;28;20224;-64
2024/01/20 05:01:06;;;;;;;36.93;12.10;;;;;;;;;;5022191;28;20197;-65
2024/01/20 05:03:33;;;;;;;29.70;12.20;;;;;;;;;;5018293;28;20250;-64
2024/01/20 05:06:00;;;;;;;31.27;12.77;;;;;;;;;;5016653;28;20261;-64
2024/01/20 05:08:27;;;;;;;115.50;14.23;;;;;;;;;;5021982;28;20310;-64
2024/01/20 05:10:55;;;;;;;40.67;12.67;;;;;;;;;;5025084;28;20204;-64
2024/01/20 05:13:22;;;;;;;52.83;11.87;;;;;;;;;;5022244;28;20202;-64
2024/01/20 05:15:50;;;;;;;83.03;13.23;;;;;;;;;;5025345;28;20201;-64
2024/01/20 05:18:17;;;;;;;127.97;13.90;;;;;;;;;;5020016;28;20212;-64
2024/01/20 05:20:45;;;;;;;57.17;13.03;;;;;;;;;;5018174;28;20226;-65
2024/01/20 05:23:12;;;;;;;88.40;13.70;;;;;;;;;;5026951;28;20210;-64
2024/01/20 05:25:39;;;;;;;55.17;12.93;;;;;;;;;;5021445;28;20214;-64
2024/01/20 05:28:06;;;;;;;26.90;12.27;;;;;;;;;;5027557;28;20209;-64
2024/01/20 05:30:33;;;;;;;35.77;12.60;;;;;;;;;;5027847;28;20215;-65
2024/01/20 05:33:02;;;;;;;21.97;12.13;;;;;;;;;;5017356;28;20206;-67
2024/01/20 05:35:29;;;;;;;29.47;12.73;;;;;;;;;;5019206;28;20207;-67
2024/01/20 05:37:56;;;;;;;70.60;13.53;;;;;;;;;;5020712;28;20246;-67
2024/01/20 05:40:23;;;;;;;69.63;13.33;;;;;;;;;;5021660;28;20208;-67
2024/01/20 05:42:51;;;;;;;58.53;12.93;;;;;;;;;;5026277;28;20208;-68
2024/01/20 05:45:18;;;;;;;28.63;12.43;;;;;;;;;;5023451;28;20251;-67
2024/01/20 05:47:45;;;;;;;25.27;11.93;;;;;;;;;;5023513;28;20235;-67
2024/01/20 05:50:13;;;;;;;22.10;11.67;;;;;;;;;;5023970;28;20298;-67
2024/01/20 05:52:40;;;;;;;18.27;10.77;;;;;;;;;;5021215;28;20204;-67
2024/01/20 05:55:08;;;;;;;20.40;12.70;;;;;;;;;;5021612;28;20204;-67
2024/01/20 05:57:35;;;;;;;77.40;35.13;;;;;;;;;;5018287;28;20206;-68
2024/01/20 06:00:03;;;;;;;37.30;19.00;;;;;;;;;;5022312;28;20204;-67
2024/01/20 06:02:30;;;;;;;74.83;16.40;;;;;;;;;;5022490;28;20319;-67
2024/01/20 06:04:57;;;;;;;33.50;13.87;;;;;;;;;;5019473;28;20301;-68
2024/01/20 06:07:25;;;;;;;37.40;13.67;;;;;;;;;;5020809;28;20216;-67
2024/01/20 06:09:52;;;;;;;49.33;12.83;;;;;;;;;;5018480;28;20206;-67
2024/01/20 06:12:20;;;;;;;66.93;13.60;;;;;;;;;;5021312;28;20239;-67
2024/01/20 06:14:47;;;;;;;40.90;13.67;;;;;;;;;;5021043;28;20280;-67
2024/01/20 06:17:14;;;;;;;67.97;14.90;;;;;;;;;;5024327;28;20202;-67
2024/01/20 06:19:41;;;;;;;66.77;14.60;;;;;;;;;;5024233;28;20231;-67
2024/01/20 06:22:08;;;;;;;45.90;13.27;;;;;;;;;;5019652;28;20209;-67
2024/01/20 06:24:37;;;;;;;86.77;14.93;;;;;;;;;;5021517;28;20204;-67
2024/01/20 06:27:04;;;;;;;31.03;12.97;;;;;;;;;;5023973;28;20210;-67
2024/01/20 06:29:31;;;;;;;56.80;13.20;;;;;;;;;;5023746;28;20204;-67
2024/01/20 06:31:58;;;;;;;102.47;14.83;;;;;;;;;;5021309;28;20196;-68
2024/01/20 06:34:25;;;;;;;22.53;12.60;;;;;;;;;;5023990;28;20207;-67
2024/01/20 06:36:52;;;;;;;43.53;13.80;;;;;;;;;;5020622;28;20222;-67
2024/01/20 06:39:19;;;;;;;34.17;12.77;;;;;;;;;;5023391;28;20212;-67
2024/01/20 06:41:48;;;;;;;37.23;13.90;;;;;;;;;;5019853;28;20295;-67
2024/01/20 06:44:15;;;;;;;47.03;13.20;;;;;;;;;;5025920;28;20226;-67
2024/01/20 06:46:42;;;;;;;61.43;14.43;;;;;;;;;;5017030;28;20208;-67
2024/01/20 06:49:09;;;;;;;34.80;13.80;;;;;;;;;;5023076;28;20214;-67
2024/01/20 06:51:36;;;;;;;85.67;15.40;;;;;;;;;;5020820;28;20228;-67
2024/01/20 06:54:03;;;;;;;38.97;14.90;;;;;;;;;;5021277;28;20235;-67
2024/01/20 06:56:30;;;;;;;25.30;13.70;;;;;;;;;;5023997;28;20207;-68
2024/01/20 06:58:59;;;;;;;44.83;14.40;;;;;;;;;;5016713;28;20219;-67
2024/01/20 07:01:27;;;;;;;29.77;14.50;;;;;;;;;;5019510;28;20215;-67
2024/01/20 07:03:54;;;;;;;52.43;15.37;;;;;;;;;;5017303;28;20204;-67
2024/01/20 07:06:23;;;;;;;45.90;15.83;;;;;;;;;;5022416;28;20221;-67
2024/01/20 07:08:50;;;;;;;38.37;14.40;;;;;;;;;;5016595;28;20196;-67
2024/01/20 07:11:17;;;;;;;30.23;13.93;;;;;;;;;;5023583;28;20210;-67
2024/01/20 07:13:44;;;;;;;145.77;18.73;;;;;;;;;;5021290;28;20244;-68
2024/01/20 07:16:14;;;;;;;32.47;15.47;;;;;;;;;;5020323;28;20213;-67
2024/01/20 07:18:41;;;;;;;28.70;14.43;;;;;;;;;;5018915;28;20227;-67
2024/01/20 07:21:08;;;;;;;26.77;15.27;;;;;;;;;;5019769;28;20285;-67
2024/01/20 07:23:35;;;;;;;29.10;14.07;;;;;;;;;;5023103;28;20212;-67
2024/01/20 07:26:02;;;;;;;28.13;14.73;;;;;;;;;;5017299;28;20200;-67
2024/01/20 07:28:29;;;;;;;32.93;15.17;;;;;;;;;;5021498;28;20226;-67
2024/01/20 07:30:57;;;;;;;57.07;14.53;;;;;;;;;;5018013;28;20193;-67
2024/01/20 07:33:25;;;;;;;72.70;14.30;;;;;;;;;;5016849;28;20202;-67
2024/01/20 07:35:52;;;;;;;29.57;14.53;;;;;;;;;;5016471;28;20209;-67
2024/01/20 07:38:19;;;;;;;37.90;14.67;;;;;;;;;;5018700;28;20204;-67
2024/01/20 07:40:47;;;;;;;24.03;13.73;;;;;;;;;;5020792;28;20200;-67
2024/01/20 07:43:14;;;;;;;25.33;13.23;;;;;;;;;;5021155;28;20195;-67
2024/01/20 07:45:41;;;;;;;30.67;14.17;;;;;;;;;;5015048;28;20210;-67
2024/01/20 07:48:08;;;;;;;38.47;14.13;;;;;;;;;;5021587;28;20212;-67
2024/01/20 07:50:37;;;;;;;41.90;13.50;;;;;;;;;;5016727;28;20203;-68
2024/01/20 07:53:04;;;;;;;50.67;13.00;;;;;;;;;;5020645;28;20272;-67
2024/01/20 07:55:31;;;;;;;56.60;13.73;;;;;;;;;;5019860;28;20207;-67
2024/01/20 07:57:58;;;;;;;31.30;12.10;;;;;;;;;;5018699;28;20261;-67
2024/01/20 08:00:26;;;;;;;22.70;11.07;;;;;;;;;;5020935;28;20227;-67
2024/01/20 08:02:53;;;;;;;114.50;13.60;;;;;;;;;;5019924;28;20389;-67
2024/01/20 08:05:20;;;;;;;43.83;10.63;;;;;;;;;;5022503;28;20203;-68
2024/01/20 08:07:48;;;;;;;97.90;12.50;;;;;;;;;;5019937;28;20208;-67
2024/01/20 08:10:15;;;;;;;57.80;11.03;;;;;;;;;;5019756;28;20203;-67
2024/01/20 08:12:44;;;;;;;85.07;12.63;;;;;;;;;;5023076;28;20199;-67
2024/01/20 08:15:11;;;;;;;51.43;12.37;;;;;;;;;;5019993;28;20207;-67
2024/01/20 08:17:39;;;;;;;104.10;15.13;;;;;;;;;;5018847;28;20203;-67
2024/01/20 08:20:06;;;;;;;98.33;14.87;;;;;;;;;;5016814;28;20211;-67
2024/01/20 08:22:33;;;;;;;49.93;12.23;;;;;;;;;;5005273;28;20217;-67
2024/01/20 08:25:04;;;;;;;55.77;12.70;;;;;;;;;;5020997;28;20212;-67
2024/01/20 08:27:31;;;;;;;50.90;13.43;;;;;;;;;;5017245;28;20200;-67
2024/01/20 08:29:59;;;;;;;62.07;14.00;;;;;;;;;;5018813;28;20204;-67
2024/01/20 08:32:26;;;;;;;141.40;15.80;;;;;;;;;;5017657;28;20199;-67
2024/01/20 08:34:53;;;;;;;49.90;12.63;;;;;;;;;;5015661;28;20211;-67
2024/01/20 08:37:20;;;;;;;92.90;15.00;;;;;;;;;;5017995;28;20467;-67
2024/01/20 08:39:47;;;;;;;103.87;15.73;;;;;;;;;;5020171;28;20212;-67
2024/01/20 08:42:16;;;;;;;118.00;15.13;;;;;;;;;;5018458;28;20294;-67
2024/01/20 08:44:43;;;;;;;34.93;14.60;;;;;;;;;;5020451;28;20213;-68
2024/01/20 08:47:10;;;;;;;38.90;15.20;;;;;;;;;;5020225;28;20192;-67
2024/01/20 08:49:37;;;;;;;32.83;14.83;;;;;;;;;;5023938;28;20208;-67
2024/01/20 08:52:05;;;;;;;41.17;14.50;;;;;;;;;;5023719;28;20210;-67
2024/01/20 08:54:32;;;;;;;41.57;15.47;;;;;;;;;;5023972;28;20208;-67
2024/01/20 08:56:59;;;;;;;60.40;15.23;;;;;;;;;;5029156;28;20210;-67
2024/01/20 08:59:27;;;;;;;92.37;16.80;;;;;;;;;;5024335;28;20223;-67
2024/01/20 09:01:54;;;;;;;71.23;14.00;;;;;;;;;;5023793;28;20236;-64
2024/01/20 09:04:21;;;;;;;34.47;12.90;;;;;;;;;;5023477;28;20204;-64
2024/01/20 09:06:49;;;;;;;43.63;12.50;;;;;;;;;;5022788;28;20193;-65
2024/01/20 09:09:16;;;;;;;137.93;14.53;;;;;;;;;;5020252;28;20217;-64
2024/01/20 09:11:44;;;;;;;47.77;12.50;;;;;;;;;;5014169;28;20204;-64
2024/01/20 09:14:11;;;;;;;53.60;12.70;;;;;;;;;;5019868;28;20203;-64
2024/01/20 09:16:39;;;;;;;116.80;16.67;;;;;;;;;;5023244;28;20212;-64
2024/01/20 09:19:06;;;;;;;59.27;14.43;;;;;;;;;;5025774;28;20234;-64
2024/01/20 09:21:33;;;;;;;113.30;15.30;;;;;;;;;;5030174;28;20206;-64
2024/01/20 09:24:01;;;;;;;39.30;14.33;;;;;;;;;;5020074;28;20193;-64
2024/01/20 09:26:28;;;;;;;42.63;14.90;;;;;;;;;;5022288;28;20271;-64
2024/01/20 09:28:55;;;;;;;25.87;13.10;;;;;;;;;;5020570;28;20295;-64
2024/01/20 09:31:22;;;;;;;47.33;14.87;;;;;;;;;;5019593;28;20199;-64
2024/01/20 09:33:51;;;;;;;42.57;13.70;;;;;;;;;;5025215;28;20222;-64
2024/01/20 09:36:18;;;;;;;44.47;13.20;;;;;;;;;;5024271;28;20211;-64
2024/01/20 09:38:45;;;;;;;52.47;14.20;;;;;;;;;;5026769;28;20208;-65
2024/01/20 09:41:12;;;;;;;24.10;13.17;;;;;;;;;;5024891;28;20211;-64
2024/01/20 09:43:40;;;;;;;39.57;14.40;;;;;;;;;;5017118;28;20218;-65
2024/01/20 09:46:07;;;;;;;32.37;13.30;;;;;;;;;;5015722;28;20211;-64
2024/01/20 09:48:35;;;;;;;23.97;11.90;;;;;;;;;;5013664;28;20219;-64
2024/01/20 09:51:03;;;;;;;38.37;13.03;;;;;;;;;;5014679;28;20232;-64
2024/01/20 09:53:31;;;;;;;69.57;14.07;;;;;;;;;;5022478;28;20196;-64
2024/01/20 09:55:58;;;;;;;38.43;13.90;;;;;;;;;;5019595;28;20211;-65
2024/01/20 09:58:25;;;;;;;55.93;15.60;;;;;;;;;;5022116;28;20193;-64
2024/01/20 10:00:53;;;;;;;32.37;15.00;;;;;;;;;;5022201;28;20216;-64
2024/01/20 10:03:21;;;;;;;95.67;16.83;;;;;;;;;;5018780;28;20228;-64
2024/01/20 10:05:48;;;;;;;78.13;14.63;;;;;;;;;;5017926;28;20315;-64
2024/01/20 10:08:16;;;;;;;25.43;14.30;;;;;;;;;;5013028;28;20298;-64
2024/01/20 10:10:43;;;;;;;45.20;17.07;;;;;;;;;;5012068;28;20196;-65
2024/01/20 10:13:11;;;;;;;28.90;15.23;;;;;;;;;;5012177;28;20208;-65
2024/01/20 10:15:38;;;;;;;65.00;15.97;;;;;;;;;;5015927;28;20212;-64
2024/01/20 10:18:10;;;;;;;30.77;15.07;;;;;;;;;;5010221;28;20201;-64
2024/01/20 10:20:37;;;;;;;28.07;13.13;;;;;;;;;;5009308;28;20240;-65
2024/01/20 10:23:06;;;;;;;21.93;12.77;;;;;;;;;;5012407;28;20375;-64
2024/01/20 10:25:34;;;;;;;29.23;12.67;;;;;;;;;;5017967;28;20315;-63
2024/01/20 10:28:01;;;;;;;31.57;15.53;;;;;;;;;;5024922;28;20204;-63
2024/01/20 10:30:30;;;;;;;37.20;16.50;;;;;;;;;;5021983;28;20203;-64
2024/01/20 10:32:58;;;;;;;34.40;16.80;;;;;;;;;;5020689;28;20200;-63
2024/01/20 10:35:25;;;;;;;26.83;16.00;;;;;;;;;;5019084;28;20205;-63
2024/01/20 10:37:55;;;;;;;35.67;15.60;;;;;;;;;;5020990;28;20204;-63
2024/01/20 10:40:22;;;;;;;28.17;16.43;;;;;;;;;;5017315;28;20254;-64
2024/01/20 10:43:11;;;;;;;46.73;17.67;;;;;;;;;;5022983;28;20203;-63
2024/01/20 10:45:43;;;;;;;35.47;18.00;;;;;;;;;;5024301;28;20205;-64
2024/01/20 10:48:14;;;;;;;33.20;18.07;;;;;;;;;;5015121;28;20203;-63
2024/01/20 10:50:46;;;;;;;43.30;22.30;;;;;;;;;;5017394;28;20203;-65
2024/01/20 10:53:13;;;;;;;40.10;18.10;;;;;;;;;;5012826;28;20196;-65
2024/01/20 10:55:41;;;;;;;30.33;17.03;;;;;;;;;;5016819;28;20201;-63
2024/01/20 10:58:10;;;;;;;25.80;15.33;;;;;;;;;;5013814;28;20212;-63
2024/01/20 11:00:38;;;;;;;24.10;14.73;;;;;;;;;;5013864;28;20218;-63
2024/01/20 11:03:06;;;;;;;34.23;16.97;;;;;;;;;;5011638;28;20243;-64
2024/01/20 11:05:33;;;;;;;37.43;19.43;;;;;;;;;;5014233;28;20203;-63
2024/01/20 11:08:05;;;;;;;33.73;18.57;;;;;;;;;;5020579;28;20263;-63
2024/01/20 11:10:38;;;;;;;35.87;19.53;;;;;;;;;;5021162;28;20195;-63
2024/01/20 11:13:06;;;;;;;28.93;17.10;;;;;;;;;;5022068;28;20205;-63
2024/01/20 11:15:36;;;;;;;29.33;16.40;;;;;;;;;;5020427;28;20205;-63
2024/01/20 11:18:03;;;;;;;21.40;13.77;;;;;;;;;;5022399;28;20235;-64
2024/01/20 11:20:30;;;;;;;25.57;14.17;;;;;;;;;;5020435;28;20215;-63
2024/01/20 11:22:58;;;;;;;34.27;16.33;;;;;;;;;;5028372;28;20201;-63
2024/01/20 11:25:25;;;;;;;26.60;15.43;;;;;;;;;;5023171;28;20210;-64
2024/01/20 11:27:54;;;;;;;23.43;14.87;;;;;;;;;;5020542;28;20196;-64
2024/01/20 11:30:29;;;;;;;20.27;13.47;;;;;;;;;;5019656;28;20223;-63
2024/01/20 11:32:58;;;;;;;20.30;13.60;;;;;;;;;;5020321;28;20206;-64
2024/01/20 11:35:25;;;;;;;25.20;14.50;;;;;;;;;;5023180;28;20201;-63
2024/01/20 11:37:55;;;;;;;19.47;12.80;;;;;;;;;;5023467;28;20205;-64
2024/01/20 11:40:22;;;;;;;47.80;14.50;;;;;;;;;;5022360;28;20226;-64
2024/01/20 11:42:49;;;;;;;26.90;14.23;;;;;;;;;;5020487;28;20208;-63
2024/01/20 11:45:17;;;;;;;22.57;13.63;;;;;;;;;;5017792;28;20200;-64
2024/01/20 11:47:45;;;;;;;26.03;13.03;;;;;;;;;;5017192;28;20205;-63
2024/01/20 11:50:13;;;;;;;21.20;13.47;;;;;;;;;;5019214;28;20284;-63
2024/01/20 11:52:40;;;;;;;20.03;13.30;;;;;;;;;;5021110;28;20207;-64
2024/01/20 11:55:08;;;;;;;19.70;13.30;;;;;;;;;;5019023;28;20295;-63
2024/01/20 11:57:35;;;;;;;17.77;12.30;;;;;;;;;;5017674;28;20288;-63
2024/01/20 12:00:03;;;;;;;24.33;14.07;;;;;;;;;;5022649;28;20223;-64
2024/01/20 12:02:30;;;;;;;21.67;12.57;;;;;;;;;;5019873;28;20224;-63
2024/01/20 12:04:57;;;;;;;25.70;13.93;;;;;;;;;;5025769;28;20198;-63
2024/01/20 12:07:26;;;;;;;21.50;14.57;;;;;;;;;;5028533;28;20202;-63
2024/01/20 12:09:53;;;;;;;22.33;14.60;;;;;;;;;;5022956;28;20188;-63
2024/01/20 12:12:22;;;;;;;26.73;14.63;;;;;;;;;;5021460;28;20196;-63
2024/01/20 12:14:50;;;;;;;24.87;14.77;;;;;;;;;;5026807;28;20205;-63
2024/01/20 12:17:22;;;;;;;26.73;14.37;;;;;;;;;;5028099;28;20200;-63
2024/01/20 12:19:49;;;;;;;22.27;14.37;;;;;;;;;;5018424;28;20212;-63
2024/01/20 12:22:16;;;;;;;21.17;14.47;;;;;;;;;;5020736;28;20204;-63
2024/01/20 12:24:48;;;;;;;22.27;13.83;;;;;;;;;;5020210;28;20206;-63
2024/01/20 12:27:16;;;;;;;23.07;13.87;;;;;;;;;;5022028;28;20219;-63
2024/01/20 12:29:43;;;;;;;18.60;13.00;;;;;;;;;;5022982;28;20203;-63
2024/01/20 12:32:10;;;;;;;19.37;13.17;;;;;;;;;;5023642;28;20208;-63
2024/01/20 12:34:37;;;;;;;19.73;13.10;;;;;;;;;;5019630;28;20204;-63
2024/01/20 12:37:04;;;;;;;24.63;15.00;;;;;;;;;;5023373;28;20224;-64
2024/01/20 12:39:31;;;;;;;26.80;13.47;;;;;;;;;;5023350;28;20203;-63
2024/01/20 12:42:00;;;;;;;27.47;15.33;;;;;;;;;;5014044;28;20236;-62
2024/01/20 12:44:27;;;;;;;22.40;14.60;;;;;;;;;;5016066;28;20219;-64
2024/01/20 12:46:55;;;;;;;27.40;14.83;;;;;;;;;;5016005;28;20234;-63
2024/01/20 12:49:22;;;;;;;23.03;14.87;;;;;;;;;;5020490;28;20205;-63
2024/01/20 12:51:49;;;;;;;26.60;16.90;;;;;;;;;;5024376;28;20208;-63
2024/01/20 12:54:16;;;;;;;26.67;16.67;;;;;;;;;;5022361;28;20217;-63
2024/01/20 12:56:43;;;;;;;51.13;18.23;;;;;;;;;;5019247;28;20205;-63
2024/01/20 12:59:12;;;;;;;25.47;15.93;;;;;;;;;;5019526;28;20242;-63
2024/01/20 13:01:39;;;;;;;27.73;17.43;;;;;;;;;;5018626;28;20213;-62
2024/01/20 13:04:06;;;;;;;30.40;17.80;;;;;;;;;;5021412;28;20212;-62
2024/01/20 13:06:33;;;;;;;24.93;16.97;;;;;;;;;;5018933;28;20200;-63
2024/01/20 13:09:00;;;;;;;32.70;17.73;;;;;;;;;;5026265;28;20290;-62
2024/01/20 13:11:29;;;;;;;33.23;18.30;;;;;;;;;;5023994;28;20306;-62
2024/01/20 13:13:58;;;;;;;27.43;18.57;;;;;;;;;;5025572;28;20201;-62
2024/01/20 13:16:27;;;;;;;30.97;19.37;;;;;;;;;;5018945;28;20224;-63
2024/01/20 13:18:55;;;;;;;28.90;18.13;;;;;;;;;;5019048;28;20197;-62
2024/01/20 13:21:22;;;;;;;29.33;18.30;;;;;;;;;;5016918;28;20301;-63
2024/01/20 13:23:49;;;;;;;27.63;17.50;;;;;;;;;;5021224;28;20208;-62
2024/01/20 13:26:17;;;;;;;30.40;18.07;;;;;;;;;;5020773;28;20543;-62
2024/01/20 13:28:47;;;;;;;28.93;17.77;;;;;;;;;;5020457;28;20210;-65
2024/01/20 13:31:14;;;;;;;28.93;18.17;;;;;;;;;;5020209;28;20338;-62
2024/01/20 13:33:42;;;;;;;26.57;16.80;;;;;;;;;;5025428;28;20207;-62
2024/01/20 13:36:09;;;;;;;26.90;15.97;;;;;;;;;;5014314;28;20193;-64
2024/01/20 13:38:37;;;;;;;27.47;16.27;;;;;;;;;;5021153;28;20205;-63
2024/01/20 13:41:05;;;;;;;24.73;15.40;;;;;;;;;;5023755;28;20226;-63
2024/01/20 13:43:32;;;;;;;22.73;14.80;;;;;;;;;;5020872;28;20305;-66
2024/01/20 13:45:59;;;;;;;23.33;15.10;;;;;;;;;;5019867;28;20196;-66
2024/01/20 13:48:26;;;;;;;20.90;14.43;;;;;;;;;;5027813;28;20211;-66
2024/01/20 13:50:55;;;;;;;22.47;14.63;;;;;;;;;;5023930;28;20212;-66
2024/01/20 13:53:24;;;;;;;18.67;13.57;;;;;;;;;;5027275;28;20200;-66
2024/01/20 13:55:51;;;;;;;20.30;13.60;;;;;;;;;;5023063;28;20298;-66
2024/01/20 13:58:18;;;;;;;20.20;13.43;;;;;;;;;;5022782;28;20261;-66
2024/01/20 14:00:46;;;;;;;21.13;13.30;;;;;;;;;;5022479;28;20248;-66
2024/01/20 14:03:13;;;;;;;19.47;12.90;;;;;;;;;;5024772;28;20248;-66
2024/01/20 14:05:41;;;;;;;22.07;14.13;;;;;;;;;;5019097;28;20225;-66
2024/01/20 14:08:09;;;;;;;21.80;14.00;;;;;;;;;;5021411;28;20272;-66
2024/01/20 14:10:36;;;;;;;22.10;14.00;;;;;;;;;;5021181;28;20204;-66
2024/01/20 14:13:04;;;;;;;21.87;14.80;;;;;;;;;;5027655;28;20211;-67
2024/01/20 14:15:32;;;;;;;24.40;14.93;;;;;;;;;;5017337;28;20201;-66
2024/01/20 14:17:59;;;;;;;20.93;13.57;;;;;;;;;;5020271;28;20310;-66